Interport Pilot — WDB8964 — position and weather

sailwx.info

Track history (hours):
 
Tides and Currents Weather Stations Pressure Air Temp Water Temp Dewpoint Dewpoint Depression Visibility Wind Speed Wind Dir Waves Ship Positions

Interport Pilot

Owner: Interport Pilot Agency, Inc., Port Monmouth, NJ. More information available from US FCC via Universal Licensing System and Coast Guard Vessel Documentation Center.

Last reported at 2018-Feb-14 09:46 UTC. Time now 2018-Feb-17 21:33 UTC.
Position N 40°28' W 074°03'.

MMSI: 366968154.

Date/timePositionNaut miles runAvg speedWind from/ knotsBaromVisibWave heightAir tempDewpointWater temp
2018-Feb-14 09:46N 40°28' W 074°03'713.5
2018-Feb-14 09:17N 40°29' W 073°55'3 8.3
2018-Feb-14 08:56N 40°30' W 073°59'2 0.1
2018-Feb-13 11:01N 40°29' W 073°56'214.9
2018-Feb-13 10:53N 40°29' W 073°58'3 0.3
2018-Feb-13 01:08N 40°29' W 074°02'611.7
2018-Feb-13 00:39N 40°28' W 073°54'2 7.7
2018-Feb-13 00:25N 40°30' W 073°56'3 6.7
2018-Feb-12 23:59N 40°29' W 073°59'  
2018-Feb-10 06:01N 40°28' W 074°03'115.7
2018-Feb-10 05:59N 40°29' W 074°02'6 6.5
2018-Feb-10 05:05N 40°28' W 073°54'1 8.3
2018-Feb-10 04:59N 40°29' W 073°54'3 5.6
2018-Feb-10 04:26N 40°29' W 073°58'  
Track history (hours):
 
Tides and Currents Weather Stations Pressure Air Temp Water Temp Dewpoint Dewpoint Depression Visibility Wind Speed Wind Dir Waves Ship Positions

Interport Pilot

Owner: Interport Pilot Agency, Inc., Port Monmouth, NJ. More information available from US FCC via Universal Licensing System and Coast Guard Vessel Documentation Center.

Last reported at 2018-Feb-14 09:46 UTC. Time now 2018-Feb-17 21:33 UTC.
Position N 40°28' W 074°03'.

MMSI: 366968154.

Date/timePositionNaut miles runAvg speedWind from/ knotsBaromVisibWave heightAir tempDewpointWater temp
2018-Feb-14 09:46N 40°28' W 074°03'713.5
2018-Feb-14 09:17N 40°29' W 073°55'3 8.3
2018-Feb-14 08:56N 40°30' W 073°59'2 0.1
2018-Feb-13 11:01N 40°29' W 073°56'214.9
2018-Feb-13 10:53N 40°29' W 073°58'3 0.3
2018-Feb-13 01:08N 40°29' W 074°02'611.7
2018-Feb-13 00:39N 40°28' W 073°54'2 7.7
2018-Feb-13 00:25N 40°30' W 073°56'3 6.7
2018-Feb-12 23:59N 40°29' W 073°59'  
2018-Feb-10 06:01N 40°28' W 074°03'115.7
2018-Feb-10 05:59N 40°29' W 074°02'6 6.5
2018-Feb-10 05:05N 40°28' W 073°54'1 8.3
2018-Feb-10 04:59N 40°29' W 073°54'3 5.6
2018-Feb-10 04:26N 40°29' W 073°58'  

Dump ship's entire track history